Calvin — WDH2554 — position and weather

sailwx.info

Track history (hours):
 
Tides and Currents Weather Stations Pressure Air Temp Water Temp Dewpoint Dewpoint Depression Visibility Wind Speed Wind Dir Waves Ship Positions

Calvin

Owner: Salmon Bay Barge Line, Inc., Seattle, WA. More information available from US FCC via Universal Licensing System and Coast Guard Vessel Documentation Center.

Last reported at 2018-Jun-23 20:39 UTC. Time now 2018-Jul-22 21:51 UTC.
Position N 33°06' W 119°25'.
Warning: this ship's position is 29 days out of date.

Length 27 m; draft 4 m.

Type: Tug. MMSI: 367598820.

Date/timePositionNaut miles runAvg speedWind from/ knotsBaromVisibWave heightAir tempDewpointWater temp
2018-Jun-23 20:39N 33°06' W 119°25'2 7.5
2018-Jun-23 20:27N 33°07' W 119°26'3 7.3
2018-Jun-23 20:00N 33°08' W 119°30'4 7.5
2018-Jun-23 19:30N 33°10' W 119°34'4 7.5
2018-Jun-23 19:00N 33°12' W 119°38'4 7.3
2018-Jun-23 18:30N 33°13' W 119°42'4 8.0
2018-Jun-23 18:00N 33°15' W 119°46'6 7.8
2018-Jun-23 17:12N 33°19' W 119°52'2 7.8
2018-Jun-23 16:55N 33°21' W 119°54'3 7.5
2018-Jun-23 16:30N 33°23' W 119°57'4 7.1
2018-Jun-23 15:59N 33°25' W 120°00'3 6.8
2018-Jun-23 15:30N 33°27' W 120°03'5 7.0
2018-Jun-23 14:46N 33°30' W 120°08'2 7.0
2018-Jun-23 14:30N 33°31' W 120°09'3 6.8
2018-Jun-23 14:00N 33°34' W 120°12'4 6.7
2018-Jun-23 13:29N 33°36' W 120°16'4 6.7
2018-Jun-23 12:56N 33°38' W 120°19'3 6.7
2018-Jun-23 12:30N 33°40' W 120°22'3 6.8
2018-Jun-23 12:00N 33°43' W 120°25'3 6.7
2018-Jun-23 11:30N 33°45' W 120°27'3 6.6
2018-Jun-23 11:00N 33°48' W 120°30'4 7.2
2018-Jun-23 10:30N 33°51' W 120°33'3 7.1
2018-Jun-23 10:00N 33°53' W 120°35'4 7.3
2018-Jun-23 09:30N 33°56' W 120°38'4 7.3
2018-Jun-23 09:00N 33°59' W 120°40'3 7.0
2018-Jun-23 08:30N 34°02' W 120°42'3 6.9
2018-Jun-23 08:00N 34°05' W 120°44'4 6.9
2018-Jun-23 07:24N 34°09' W 120°47'3 7.1
2018-Jun-23 07:00N 34°12' W 120°48'4 7.5
2018-Jun-23 06:30N 34°15' W 120°50'4 7.5
2018-Jun-23 05:59N 34°18' W 120°52'4 7.6
2018-Jun-23 05:30N 34°22' W 120°53'4 7.4
2018-Jun-23 05:00N 34°26' W 120°54'3 6.8
2018-Jun-23 04:30N 34°29' W 120°56'3 5.9
2018-Jun-23 04:00N 34°31' W 120°57'4 7.5
2018-Jun-23 03:30N 34°35' W 120°58'4 7.4
2018-Jun-23 03:00N 34°39' W 120°58'4 7.5
2018-Jun-23 02:28N 34°43' W 120°59'4 7.7
2018-Jun-23 02:00N 34°46' W 120°60'4 7.7
2018-Jun-23 01:30N 34°50' W 121°01'4 7.5
2018-Jun-23 01:00N 34°54' W 121°02'4 7.5
2018-Jun-23 00:30N 34°57' W 121°03'4 7.8
2018-Jun-23 00:00N 35°01' W 121°05'4 7.8
2018-Jun-22 23:30N 35°05' W 121°06'4 7.9
2018-Jun-22 23:00N 35°09' W 121°08'4 7.5
2018-Jun-22 22:30N 35°12' W 121°09'4 7.4
2018-Jun-22 22:00N 35°16' W 121°11'4 7.4
2018-Jun-22 21:30N 35°19' W 121°13'4 7.3
2018-Jun-22 21:00N 35°22' W 121°15'4 7.5
2018-Jun-22 20:29N 35°25' W 121°17'5 7.6
2018-Jun-22 19:47N 35°30' W 121°21'2 7.2
2018-Jun-22 19:30N 35°32' W 121°22'22 7.7
2018-Jun-22 16:39N 35°49' W 121°38'1 7.4
2018-Jun-22 16:29N 35°50' W 121°39'4 7.6
2018-Jun-22 15:56N 35°53' W 121°42'3 7.8
2018-Jun-22 15:30N 35°56' W 121°45'4 7.7
2018-Jun-22 15:00N 35°59' W 121°47'4 7.5
2018-Jun-22 14:30N 36°02' W 121°50'4 7.4
2018-Jun-22 14:00N 36°05' W 121°53'4 7.4
2018-Jun-22 13:30N 36°08' W 121°56'4 8.1
2018-Jun-22 13:00N 36°11' W 121°59'4 7.9
2018-Jun-22 12:30N 36°14' W 122°02'4 8.1
2018-Jun-22 12:00N 36°17' W 122°06'4 7.5
2018-Jun-22 11:30N 36°20' W 122°09'4 7.3
2018-Jun-22 11:00N 36°22' W 122°12'4 7.4
2018-Jun-22 10:30N 36°25' W 122°15'4 7.4
2018-Jun-22 10:00N 36°28' W 122°18'4 7.2
2018-Jun-22 09:30N 36°31' W 122°21'4 7.3
2018-Jun-22 09:00N 36°34' W 122°23'4 7.2
2018-Jun-22 08:30N 36°37' W 122°25'4 7.2
2018-Jun-22 08:00N 36°41' W 122°27'4 7.6
2018-Jun-22 07:30N 36°44' W 122°29'4 7.6
2018-Jun-22 07:00N 36°48' W 122°30'11 8.1
2018-Jun-22 05:35N 36°58' W 122°36'1 8.3
2018-Jun-22 05:29N 36°59' W 122°36'4 8.2
2018-Jun-22 04:59N 37°02' W 122°39'16 7.9
2018-Jun-22 02:59N 37°13' W 122°54'6 7.8
2018-Jun-22 02:11N 37°17' W 122°59'2 7.8
2018-Jun-22 01:59N 37°19' W 123°01'6 8.0
2018-Jun-22 01:12N 37°23' W 123°07'36 7.6
2018-Jun-21 20:29N 37°53' W 123°31'4 8.7
2018-Jun-21 20:00N 37°57' W 123°32'4 8.5
2018-Jun-21 19:30N 38°01' W 123°34'4 8.1
2018-Jun-21 19:00N 38°05' W 123°35'4 8.5
2018-Jun-21 18:30N 38°09' W 123°36'4 8.4
2018-Jun-21 18:00N 38°13' W 123°37'4 8.4
2018-Jun-21 17:30N 38°17' W 123°38'4 8.2
2018-Jun-21 17:00N 38°21' W 123°39'4 8.0
2018-Jun-21 16:30N 38°25' W 123°41'4 7.9
2018-Jun-21 16:00N 38°29' W 123°42'4 7.8
2018-Jun-21 15:30N 38°33' W 123°44'7 8.0
2018-Jun-21 14:41N 38°39' W 123°46'3 8.1
2018-Jun-21 14:22N 38°41' W 123°47'3 8.3
2018-Jun-21 13:58N 38°44' W 123°48'344 7.7
2018-Jun-19 17:29N 44°28' W 124°17'6 9.3
2018-Jun-19 16:50N 44°34' W 124°16'18 8.8
2018-Jun-19 14:50N 44°51' W 124°11'10 8.3
2018-Jun-19 13:40N 45°00' W 124°08'2 8.5
2018-Jun-19 13:29N 45°02' W 124°07'4 8.3
2018-Jun-19 13:00N 45°06' W 124°06'9 8.3
2018-Jun-19 11:58N 45°15' W 124°05'5 8.7
2018-Jun-19 11:25N 45°19' W 124°05'3 8.4
2018-Jun-19 11:00N 45°23' W 124°05'4 8.2
2018-Jun-19 10:29N 45°27' W 124°04'4 8.4
2018-Jun-19 10:00N 45°31' W 124°04'4 8.4
2018-Jun-19 09:30N 45°35' W 124°05'4 8.5
2018-Jun-19 09:01N 45°39' W 124°06'4 8.3
2018-Jun-19 08:30N 45°44' W 124°06'4 8.2
2018-Jun-19 08:00N 45°48' W 124°07'4 8.1
2018-Jun-19 07:30N 45°52' W 124°08'4 7.8
2018-Jun-19 07:01N 45°55' W 124°08'4 7.8
2018-Jun-19 06:30N 45°59' W 124°09'4 8.0
2018-Jun-19 06:01N 46°03' W 124°09'4 8.0
2018-Jun-19 05:30N 46°07' W 124°10'4 8.2
2018-Jun-19 05:01N 46°11' W 124°10'4 8.1
2018-Jun-19 04:30N 46°15' W 124°06'4 8.8
2018-Jun-19 04:00N 46°15' W 124°00'4 7.4
2018-Jun-19 03:31N 46°12' W 123°56'3 6.2
2018-Jun-19 03:01N 46°12' W 123°52'3 5.9
2018-Jun-19 02:30N 46°12' W 123°48'3 5.2
2018-Jun-19 02:00N 46°14' W 123°44'2 4.5
2018-Jun-19 01:30N 46°15' W 123°42'2 4.9
2018-Jun-19 01:00N 46°16' W 123°38'3 5.6
2018-Jun-19 00:31N 46°15' W 123°34'3 6.1
2018-Jun-19 00:01N 46°16' W 123°30'3 6.3
2018-Jun-18 23:30N 46°15' W 123°26'4 7.5
2018-Jun-18 23:01N 46°11' W 123°26'4 8.1
2018-Jun-18 22:30N 46°09' W 123°21'4 8.7
2018-Jun-18 22:00N 46°09' W 123°15'5 9.1
2018-Jun-18 21:30N 46°11' W 123°09'5 9.0
2018-Jun-18 21:00N 46°09' W 123°03'4 9.0
2018-Jun-18 20:31N 46°06' W 122°58'4 8.7
2018-Jun-18 20:00N 46°04' W 122°53'4 8.6
2018-Jun-18 19:30N 45°60' W 122°51'4 8.5
2018-Jun-18 19:01N 45°56' W 122°48'4 8.6
2018-Jun-18 18:30N 45°52' W 122°47'4 7.9
2018-Jun-18 18:00N 45°48' W 122°47'5 8.1
2018-Jun-18 17:21N 45°42' W 122°46'3 8.2
2018-Jun-18 17:01N 45°40' W 122°46'3 6.6
2018-Jun-18 16:31N 45°36' W 122°47'3 5.9
2018-Jun-18 16:01N 45°34' W 122°44'1 1.6
2018-Jun-18 15:30N 45°34' W 122°43'0 0.7
2018-Jun-18 15:00N 45°34' W 122°43'0 0.0
2018-Jun-18 05:17N 45°34' W 122°43'0 1.2
2018-Jun-18 05:00N 45°34' W 122°43'1 1.8
2018-Jun-18 04:30N 45°34' W 122°44'0 0.6
2018-Jun-18 04:00N 45°34' W 122°44'0 0.3
2018-Jun-18 03:30N 45°34' W 122°44'0 0.4
2018-Jun-18 03:00N 45°34' W 122°44'1 2.1
2018-Jun-18 02:30N 45°34' W 122°43'0 0.2
2018-Jun-18 01:59N 45°34' W 122°43'0 0.0
2018-Jun-18 01:29N 45°34' W 122°43'0 0.0
2018-Jun-18 00:58N 45°34' W 122°43'0 0.5
2018-Jun-18 00:30N 45°34' W 122°43'0 0.5
2018-Jun-18 00:00N 45°34' W 122°43'0 0.0
2018-Jun-17 23:30N 45°34' W 122°43'0 0.0
2018-Jun-17 23:00N 45°34' W 122°43'0 0.0
2018-Jun-17 22:30N 45°34' W 122°43'0 0.0
2018-Jun-17 22:00N 45°34' W 122°43'0 0.0
2018-Jun-17 21:30N 45°34' W 122°43'0 0.0
2018-Jun-17 21:00N 45°34' W 122°43'0 0.0
2018-Jun-17 20:30N 45°34' W 122°43'0 0.0
2018-Jun-17 20:00N 45°34' W 122°43'0 0.0
2018-Jun-17 19:30N 45°34' W 122°43'0 0.0
2018-Jun-17 19:00N 45°34' W 122°43'0 0.0
2018-Jun-17 18:30N 45°34' W 122°43'0 0.0
2018-Jun-17 18:00N 45°34' W 122°43'0 0.0
2018-Jun-17 17:30N 45°34' W 122°43'0 0.0
2018-Jun-17 17:00N 45°34' W 122°43'0 0.0
2018-Jun-17 16:30N 45°34' W 122°43'0 0.0
2018-Jun-17 16:00N 45°34' W 122°43'0 0.0
2018-Jun-17 15:30N 45°34' W 122°43'0 0.0
2018-Jun-17 15:00N 45°34' W 122°43'0 0.0
2018-Jun-17 14:30N 45°34' W 122°43'0 0.0
2018-Jun-17 14:00N 45°34' W 122°43'0 0.0
2018-Jun-17 13:30N 45°34' W 122°43'0 0.0
2018-Jun-17 13:00N 45°34' W 122°43'0 0.0
2018-Jun-17 12:30N 45°34' W 122°43'0 0.2
2018-Jun-17 12:00N 45°34' W 122°43'4 7.7
2018-Jun-17 11:29N 45°36' W 122°47'4 8.7
2018-Jun-17 11:00N 45°41' W 122°46'4 8.4
2018-Jun-17 10:30N 45°45' W 122°46'6 7.9
2018-Jun-17 09:44N 45°51' W 122°47'2 7.9
2018-Jun-17 09:30N 45°53' W 122°47'4 7.8
2018-Jun-17 09:00N 45°56' W 122°48'4 7.9
2018-Jun-17 08:31N 45°60' W 122°51'4 7.8
2018-Jun-17 08:00N 46°04' W 122°53'4 7.6
2018-Jun-17 07:31N 46°06' W 122°57'4 7.9
2018-Jun-17 06:59N 46°09' W 123°02'4 7.7
2018-Jun-17 06:30N 46°11' W 123°06'4 7.2
2018-Jun-17 06:00N 46°11' W 123°11'4 7.6
2018-Jun-17 05:30N 46°09' W 123°16'4 7.8
2018-Jun-17 05:00N 46°09' W 123°22'4 7.6
2018-Jun-17 04:31N 46°11' W 123°26'4 7.7
2018-Jun-17 04:01N 46°15' W 123°26'4 7.1
2018-Jun-17 03:30N 46°16' W 123°31'4 8.1
2018-Jun-17 03:00N 46°15' W 123°37'4 8.1
2018-Jun-17 02:31N 46°14' W 123°43'4 8.5
2018-Jun-17 02:00N 46°12' W 123°48'4 8.3
2018-Jun-17 01:30N 46°11' W 123°54'4 8.6
2018-Jun-17 01:00N 46°14' W 123°59'4 8.5
2018-Jun-17 00:30N 46°15' W 124°05'4 8.6
2018-Jun-17 00:00N 46°14' W 124°11'611.1
2018-Jun-16 23:30N 46°19' W 124°14'510.9
2018-Jun-16 23:01N 46°24' W 124°15'611.1
2018-Jun-16 22:30N 46°30' W 124°16'611.2
2018-Jun-16 22:00N 46°36' W 124°17'510.8
2018-Jun-16 21:30N 46°41' W 124°18'510.0
2018-Jun-16 21:01N 46°46' W 124°19'5 9.9
2018-Jun-16 20:30N 46°50' W 124°22'510.1
2018-Jun-16 20:00N 46°54' W 124°27'5 9.7
2018-Jun-16 19:28N 46°58' W 124°31'8610.3
2018-Jun-16 11:04N 48°23' W 124°52'1 8.9
2018-Jun-16 10:58N 48°24' W 124°51'4 9.0
2018-Jun-16 10:30N 48°26' W 124°45'5 9.5
2018-Jun-16 10:00N 48°25' W 124°39'510.1
2018-Jun-16 09:30N 48°23' W 124°32'610.6
2018-Jun-16 08:59N 48°20' W 124°24'510.6
2018-Jun-16 08:30N 48°18' W 124°17'68 9.1
2018-Jun-16 00:58N 48°02' W 122°37'5 7.5
2018-Jun-16 00:18N 47°58' W 122°33'3 9.4
2018-Jun-16 00:00N 47°56' W 122°30'4 8.4
2018-Jun-15 23:30N 47°52' W 122°28'5 9.6
2018-Jun-15 23:00N 47°48' W 122°26'5 9.4
2018-Jun-15 22:30N 47°43' W 122°26'4 8.9
2018-Jun-15 22:00N 47°39' W 122°26'5 9.0
2018-Jun-15 21:30N 47°35' W 122°22'1 1.5
2018-Jun-15 20:58N 47°34' W 122°22'0 0.0
2018-Jun-15 20:28N 47°34' W 122°22'0 0.0
2018-Jun-15 19:58N 47°34' W 122°22'0 0.0
2018-Jun-15 19:08N 47°34' W 122°22'0 0.1
2018-Jun-15 18:57N 47°34' W 122°22'2 4.5
2018-Jun-15 18:30N 47°36' W 122°24'2 4.0
2018-Jun-15 18:00N 47°34' W 122°22'0 0.0
2018-Jun-15 05:25N 47°34' W 122°22'1 2.0
2018-Jun-15 04:59N 47°35' W 122°21'0 0.0
2018-Jun-15 04:29N 47°35' W 122°21'0 0.0
2018-Jun-15 03:59N 47°35' W 122°21'0 0.0
2018-Jun-15 03:29N 47°35' W 122°21'0 0.0
2018-Jun-15 02:59N 47°35' W 122°21'0 0.0
2018-Jun-15 02:29N 47°35' W 122°21'0 0.1
2018-Jun-15 01:59N 47°35' W 122°21'1 1.8
2018-Jun-15 01:29N 47°34' W 122°22'0 0.0
2018-Jun-15 00:59N 47°34' W 122°22'0 0.0
2018-Jun-15 00:29N 47°34' W 122°22'0 0.0
2018-Jun-14 23:59N 47°34' W 122°22'0 0.0
2018-Jun-14 23:29N 47°34' W 122°22'1 1.3
2018-Jun-14 23:00N 47°34' W 122°21'1 1.3
2018-Jun-14 22:28N 47°33' W 122°21'0 0.0
2018-Jun-14 21:55N 47°33' W 122°21'0 0.0
2018-Jun-14 21:28N 47°33' W 122°21'0 0.1
2018-Jun-14 21:00N 47°33' W 122°21'2 4.8
2018-Jun-14 20:30N 47°36' W 122°22'1 2.4
2018-Jun-14 20:00N 47°34' W 122°22'0 0.0
2018-Jun-14 19:29N 47°34' W 122°22'0 0.0
2018-Jun-14 18:56N 47°34' W 122°22'0 0.0
2018-Jun-14 18:29N 47°34' W 122°22'0 0.0
2018-Jun-14 17:59N 47°34' W 122°22'0 0.0
2018-Jun-14 17:29N 47°34' W 122°22'0 0.0
2018-Jun-14 16:59N 47°34' W 122°22'0 0.0
2018-Jun-14 16:29N 47°34' W 122°22'0 0.0
2018-Jun-14 15:59N 47°34' W 122°22'0 0.0
2018-Jun-14 15:29N 47°34' W 122°22'0 0.0
2018-Jun-14 14:59N 47°34' W 122°22'0 0.0
2018-Jun-14 14:29N 47°34' W 122°22'0 0.0
2018-Jun-14 02:55N 47°34' W 122°22'0 0.0
2018-Jun-14 02:28N 47°34' W 122°22'0 0.0
2018-Jun-14 01:58N 47°34' W 122°22'0 0.0
2018-Jun-14 01:28N 47°34' W 122°22'0 0.0
2018-Jun-14 00:58N 47°34' W 122°22'0 0.0
2018-Jun-14 00:28N 47°34' W 122°22'  
Track history (hours):
 
Tides and Currents Weather Stations Pressure Air Temp Water Temp Dewpoint Dewpoint Depression Visibility Wind Speed Wind Dir Waves Ship Positions

Calvin

Owner: Salmon Bay Barge Line, Inc., Seattle, WA. More information available from US FCC via Universal Licensing System and Coast Guard Vessel Documentation Center.

Last reported at 2018-Jun-23 20:39 UTC. Time now 2018-Jul-22 21:51 UTC.
Position N 33°06' W 119°25'.
Warning: this ship's position is 29 days out of date.

Length 27 m; draft 4 m.

Type: Tug. MMSI: 367598820.

Date/timePositionNaut miles runAvg speedWind from/ knotsBaromVisibWave heightAir tempDewpointWater temp
2018-Jun-23 20:39N 33°06' W 119°25'2 7.5
2018-Jun-23 20:27N 33°07' W 119°26'3 7.3
2018-Jun-23 20:00N 33°08' W 119°30'4 7.5
2018-Jun-23 19:30N 33°10' W 119°34'4 7.5
2018-Jun-23 19:00N 33°12' W 119°38'4 7.3
2018-Jun-23 18:30N 33°13' W 119°42'4 8.0
2018-Jun-23 18:00N 33°15' W 119°46'6 7.8
2018-Jun-23 17:12N 33°19' W 119°52'2 7.8
2018-Jun-23 16:55N 33°21' W 119°54'3 7.5
2018-Jun-23 16:30N 33°23' W 119°57'4 7.1
2018-Jun-23 15:59N 33°25' W 120°00'3 6.8
2018-Jun-23 15:30N 33°27' W 120°03'5 7.0
2018-Jun-23 14:46N 33°30' W 120°08'2 7.0
2018-Jun-23 14:30N 33°31' W 120°09'3 6.8
2018-Jun-23 14:00N 33°34' W 120°12'4 6.7
2018-Jun-23 13:29N 33°36' W 120°16'4 6.7
2018-Jun-23 12:56N 33°38' W 120°19'3 6.7
2018-Jun-23 12:30N 33°40' W 120°22'3 6.8
2018-Jun-23 12:00N 33°43' W 120°25'3 6.7
2018-Jun-23 11:30N 33°45' W 120°27'3 6.6
2018-Jun-23 11:00N 33°48' W 120°30'4 7.2
2018-Jun-23 10:30N 33°51' W 120°33'3 7.1
2018-Jun-23 10:00N 33°53' W 120°35'4 7.3
2018-Jun-23 09:30N 33°56' W 120°38'4 7.3
2018-Jun-23 09:00N 33°59' W 120°40'3 7.0
2018-Jun-23 08:30N 34°02' W 120°42'3 6.9
2018-Jun-23 08:00N 34°05' W 120°44'4 6.9
2018-Jun-23 07:24N 34°09' W 120°47'3 7.1
2018-Jun-23 07:00N 34°12' W 120°48'4 7.5
2018-Jun-23 06:30N 34°15' W 120°50'4 7.5
2018-Jun-23 05:59N 34°18' W 120°52'4 7.6
2018-Jun-23 05:30N 34°22' W 120°53'4 7.4
2018-Jun-23 05:00N 34°26' W 120°54'3 6.8
2018-Jun-23 04:30N 34°29' W 120°56'3 5.9
2018-Jun-23 04:00N 34°31' W 120°57'4 7.5
2018-Jun-23 03:30N 34°35' W 120°58'4 7.4
2018-Jun-23 03:00N 34°39' W 120°58'4 7.5
2018-Jun-23 02:28N 34°43' W 120°59'4 7.7
2018-Jun-23 02:00N 34°46' W 120°60'4 7.7
2018-Jun-23 01:30N 34°50' W 121°01'4 7.5
2018-Jun-23 01:00N 34°54' W 121°02'4 7.5
2018-Jun-23 00:30N 34°57' W 121°03'4 7.8
2018-Jun-23 00:00N 35°01' W 121°05'4 7.8
2018-Jun-22 23:30N 35°05' W 121°06'4 7.9
2018-Jun-22 23:00N 35°09' W 121°08'4 7.5
2018-Jun-22 22:30N 35°12' W 121°09'4 7.4
2018-Jun-22 22:00N 35°16' W 121°11'4 7.4
2018-Jun-22 21:30N 35°19' W 121°13'4 7.3
2018-Jun-22 21:00N 35°22' W 121°15'4 7.5
2018-Jun-22 20:29N 35°25' W 121°17'5 7.6
2018-Jun-22 19:47N 35°30' W 121°21'2 7.2
2018-Jun-22 19:30N 35°32' W 121°22'22 7.7
2018-Jun-22 16:39N 35°49' W 121°38'1 7.4
2018-Jun-22 16:29N 35°50' W 121°39'4 7.6
2018-Jun-22 15:56N 35°53' W 121°42'3 7.8
2018-Jun-22 15:30N 35°56' W 121°45'4 7.7
2018-Jun-22 15:00N 35°59' W 121°47'4 7.5
2018-Jun-22 14:30N 36°02' W 121°50'4 7.4
2018-Jun-22 14:00N 36°05' W 121°53'4 7.4
2018-Jun-22 13:30N 36°08' W 121°56'4 8.1
2018-Jun-22 13:00N 36°11' W 121°59'4 7.9
2018-Jun-22 12:30N 36°14' W 122°02'4 8.1
2018-Jun-22 12:00N 36°17' W 122°06'4 7.5
2018-Jun-22 11:30N 36°20' W 122°09'4 7.3
2018-Jun-22 11:00N 36°22' W 122°12'4 7.4
2018-Jun-22 10:30N 36°25' W 122°15'4 7.4
2018-Jun-22 10:00N 36°28' W 122°18'4 7.2
2018-Jun-22 09:30N 36°31' W 122°21'4 7.3
2018-Jun-22 09:00N 36°34' W 122°23'4 7.2
2018-Jun-22 08:30N 36°37' W 122°25'4 7.2
2018-Jun-22 08:00N 36°41' W 122°27'4 7.6
2018-Jun-22 07:30N 36°44' W 122°29'4 7.6
2018-Jun-22 07:00N 36°48' W 122°30'11 8.1
2018-Jun-22 05:35N 36°58' W 122°36'1 8.3
2018-Jun-22 05:29N 36°59' W 122°36'4 8.2
2018-Jun-22 04:59N 37°02' W 122°39'16 7.9
2018-Jun-22 02:59N 37°13' W 122°54'6 7.8
2018-Jun-22 02:11N 37°17' W 122°59'2 7.8
2018-Jun-22 01:59N 37°19' W 123°01'6 8.0
2018-Jun-22 01:12N 37°23' W 123°07'36 7.6
2018-Jun-21 20:29N 37°53' W 123°31'4 8.7
2018-Jun-21 20:00N 37°57' W 123°32'4 8.5
2018-Jun-21 19:30N 38°01' W 123°34'4 8.1
2018-Jun-21 19:00N 38°05' W 123°35'4 8.5
2018-Jun-21 18:30N 38°09' W 123°36'4 8.4
2018-Jun-21 18:00N 38°13' W 123°37'4 8.4
2018-Jun-21 17:30N 38°17' W 123°38'4 8.2
2018-Jun-21 17:00N 38°21' W 123°39'4 8.0
2018-Jun-21 16:30N 38°25' W 123°41'4 7.9
2018-Jun-21 16:00N 38°29' W 123°42'4 7.8
2018-Jun-21 15:30N 38°33' W 123°44'7 8.0
2018-Jun-21 14:41N 38°39' W 123°46'3 8.1
2018-Jun-21 14:22N 38°41' W 123°47'3 8.3
2018-Jun-21 13:58N 38°44' W 123°48'344 7.7
2018-Jun-19 17:29N 44°28' W 124°17'6 9.3
2018-Jun-19 16:50N 44°34' W 124°16'18 8.8
2018-Jun-19 14:50N 44°51' W 124°11'10 8.3
2018-Jun-19 13:40N 45°00' W 124°08'2 8.5
2018-Jun-19 13:29N 45°02' W 124°07'4 8.3
2018-Jun-19 13:00N 45°06' W 124°06'9 8.3
2018-Jun-19 11:58N 45°15' W 124°05'5 8.7
2018-Jun-19 11:25N 45°19' W 124°05'3 8.4
2018-Jun-19 11:00N 45°23' W 124°05'4 8.2
2018-Jun-19 10:29N 45°27' W 124°04'4 8.4
2018-Jun-19 10:00N 45°31' W 124°04'4 8.4
2018-Jun-19 09:30N 45°35' W 124°05'4 8.5
2018-Jun-19 09:01N 45°39' W 124°06'4 8.3
2018-Jun-19 08:30N 45°44' W 124°06'4 8.2
2018-Jun-19 08:00N 45°48' W 124°07'4 8.1
2018-Jun-19 07:30N 45°52' W 124°08'4 7.8
2018-Jun-19 07:01N 45°55' W 124°08'4 7.8
2018-Jun-19 06:30N 45°59' W 124°09'4 8.0
2018-Jun-19 06:01N 46°03' W 124°09'4 8.0
2018-Jun-19 05:30N 46°07' W 124°10'4 8.2
2018-Jun-19 05:01N 46°11' W 124°10'4 8.1
2018-Jun-19 04:30N 46°15' W 124°06'4 8.8
2018-Jun-19 04:00N 46°15' W 124°00'4 7.4
2018-Jun-19 03:31N 46°12' W 123°56'3 6.2
2018-Jun-19 03:01N 46°12' W 123°52'3 5.9
2018-Jun-19 02:30N 46°12' W 123°48'3 5.2
2018-Jun-19 02:00N 46°14' W 123°44'2 4.5
2018-Jun-19 01:30N 46°15' W 123°42'2 4.9
2018-Jun-19 01:00N 46°16' W 123°38'3 5.6
2018-Jun-19 00:31N 46°15' W 123°34'3 6.1
2018-Jun-19 00:01N 46°16' W 123°30'3 6.3
2018-Jun-18 23:30N 46°15' W 123°26'4 7.5
2018-Jun-18 23:01N 46°11' W 123°26'4 8.1
2018-Jun-18 22:30N 46°09' W 123°21'4 8.7
2018-Jun-18 22:00N 46°09' W 123°15'5 9.1
2018-Jun-18 21:30N 46°11' W 123°09'5 9.0
2018-Jun-18 21:00N 46°09' W 123°03'4 9.0
2018-Jun-18 20:31N 46°06' W 122°58'4 8.7
2018-Jun-18 20:00N 46°04' W 122°53'4 8.6
2018-Jun-18 19:30N 45°60' W 122°51'4 8.5
2018-Jun-18 19:01N 45°56' W 122°48'4 8.6
2018-Jun-18 18:30N 45°52' W 122°47'4 7.9
2018-Jun-18 18:00N 45°48' W 122°47'5 8.1
2018-Jun-18 17:21N 45°42' W 122°46'3 8.2
2018-Jun-18 17:01N 45°40' W 122°46'3 6.6
2018-Jun-18 16:31N 45°36' W 122°47'3 5.9
2018-Jun-18 16:01N 45°34' W 122°44'1 1.6
2018-Jun-18 15:30N 45°34' W 122°43'0 0.7
2018-Jun-18 15:00N 45°34' W 122°43'0 0.0
2018-Jun-18 05:17N 45°34' W 122°43'0 1.2
2018-Jun-18 05:00N 45°34' W 122°43'1 1.8
2018-Jun-18 04:30N 45°34' W 122°44'0 0.6
2018-Jun-18 04:00N 45°34' W 122°44'0 0.3
2018-Jun-18 03:30N 45°34' W 122°44'0 0.4
2018-Jun-18 03:00N 45°34' W 122°44'1 2.1
2018-Jun-18 02:30N 45°34' W 122°43'0 0.2
2018-Jun-18 01:59N 45°34' W 122°43'0 0.0
2018-Jun-18 01:29N 45°34' W 122°43'0 0.0
2018-Jun-18 00:58N 45°34' W 122°43'0 0.5
2018-Jun-18 00:30N 45°34' W 122°43'0 0.5
2018-Jun-18 00:00N 45°34' W 122°43'0 0.0
2018-Jun-17 23:30N 45°34' W 122°43'0 0.0
2018-Jun-17 23:00N 45°34' W 122°43'0 0.0
2018-Jun-17 22:30N 45°34' W 122°43'0 0.0
2018-Jun-17 22:00N 45°34' W 122°43'0 0.0
2018-Jun-17 21:30N 45°34' W 122°43'0 0.0
2018-Jun-17 21:00N 45°34' W 122°43'0 0.0
2018-Jun-17 20:30N 45°34' W 122°43'0 0.0
2018-Jun-17 20:00N 45°34' W 122°43'0 0.0
2018-Jun-17 19:30N 45°34' W 122°43'0 0.0
2018-Jun-17 19:00N 45°34' W 122°43'0 0.0
2018-Jun-17 18:30N 45°34' W 122°43'0 0.0
2018-Jun-17 18:00N 45°34' W 122°43'0 0.0
2018-Jun-17 17:30N 45°34' W 122°43'0 0.0
2018-Jun-17 17:00N 45°34' W 122°43'0 0.0
2018-Jun-17 16:30N 45°34' W 122°43'0 0.0
2018-Jun-17 16:00N 45°34' W 122°43'0 0.0
2018-Jun-17 15:30N 45°34' W 122°43'0 0.0
2018-Jun-17 15:00N 45°34' W 122°43'0 0.0
2018-Jun-17 14:30N 45°34' W 122°43'0 0.0
2018-Jun-17 14:00N 45°34' W 122°43'0 0.0
2018-Jun-17 13:30N 45°34' W 122°43'0 0.0
2018-Jun-17 13:00N 45°34' W 122°43'0 0.0
2018-Jun-17 12:30N 45°34' W 122°43'0 0.2
2018-Jun-17 12:00N 45°34' W 122°43'4 7.7
2018-Jun-17 11:29N 45°36' W 122°47'4 8.7
2018-Jun-17 11:00N 45°41' W 122°46'4 8.4
2018-Jun-17 10:30N 45°45' W 122°46'6 7.9
2018-Jun-17 09:44N 45°51' W 122°47'2 7.9
2018-Jun-17 09:30N 45°53' W 122°47'4 7.8
2018-Jun-17 09:00N 45°56' W 122°48'4 7.9
2018-Jun-17 08:31N 45°60' W 122°51'4 7.8
2018-Jun-17 08:00N 46°04' W 122°53'4 7.6
2018-Jun-17 07:31N 46°06' W 122°57'4 7.9
2018-Jun-17 06:59N 46°09' W 123°02'4 7.7
2018-Jun-17 06:30N 46°11' W 123°06'4 7.2
2018-Jun-17 06:00N 46°11' W 123°11'4 7.6
2018-Jun-17 05:30N 46°09' W 123°16'4 7.8
2018-Jun-17 05:00N 46°09' W 123°22'4 7.6
2018-Jun-17 04:31N 46°11' W 123°26'4 7.7
2018-Jun-17 04:01N 46°15' W 123°26'4 7.1
2018-Jun-17 03:30N 46°16' W 123°31'4 8.1
2018-Jun-17 03:00N 46°15' W 123°37'4 8.1
2018-Jun-17 02:31N 46°14' W 123°43'4 8.5
2018-Jun-17 02:00N 46°12' W 123°48'4 8.3
2018-Jun-17 01:30N 46°11' W 123°54'4 8.6
2018-Jun-17 01:00N 46°14' W 123°59'4 8.5
2018-Jun-17 00:30N 46°15' W 124°05'4 8.6
2018-Jun-17 00:00N 46°14' W 124°11'611.1
2018-Jun-16 23:30N 46°19' W 124°14'510.9
2018-Jun-16 23:01N 46°24' W 124°15'611.1
2018-Jun-16 22:30N 46°30' W 124°16'611.2
2018-Jun-16 22:00N 46°36' W 124°17'510.8
2018-Jun-16 21:30N 46°41' W 124°18'510.0
2018-Jun-16 21:01N 46°46' W 124°19'5 9.9
2018-Jun-16 20:30N 46°50' W 124°22'510.1
2018-Jun-16 20:00N 46°54' W 124°27'5 9.7
2018-Jun-16 19:28N 46°58' W 124°31'8610.3
2018-Jun-16 11:04N 48°23' W 124°52'1 8.9
2018-Jun-16 10:58N 48°24' W 124°51'4 9.0
2018-Jun-16 10:30N 48°26' W 124°45'5 9.5
2018-Jun-16 10:00N 48°25' W 124°39'510.1
2018-Jun-16 09:30N 48°23' W 124°32'610.6
2018-Jun-16 08:59N 48°20' W 124°24'510.6
2018-Jun-16 08:30N 48°18' W 124°17'68 9.1
2018-Jun-16 00:58N 48°02' W 122°37'5 7.5
2018-Jun-16 00:18N 47°58' W 122°33'3 9.4
2018-Jun-16 00:00N 47°56' W 122°30'4 8.4
2018-Jun-15 23:30N 47°52' W 122°28'5 9.6
2018-Jun-15 23:00N 47°48' W 122°26'5 9.4
2018-Jun-15 22:30N 47°43' W 122°26'4 8.9
2018-Jun-15 22:00N 47°39' W 122°26'5 9.0
2018-Jun-15 21:30N 47°35' W 122°22'1 1.5
2018-Jun-15 20:58N 47°34' W 122°22'0 0.0
2018-Jun-15 20:28N 47°34' W 122°22'0 0.0
2018-Jun-15 19:58N 47°34' W 122°22'0 0.0
2018-Jun-15 19:08N 47°34' W 122°22'0 0.1
2018-Jun-15 18:57N 47°34' W 122°22'2 4.5
2018-Jun-15 18:30N 47°36' W 122°24'2 4.0
2018-Jun-15 18:00N 47°34' W 122°22'0 0.0
2018-Jun-15 05:25N 47°34' W 122°22'1 2.0
2018-Jun-15 04:59N 47°35' W 122°21'0 0.0
2018-Jun-15 04:29N 47°35' W 122°21'0 0.0
2018-Jun-15 03:59N 47°35' W 122°21'0 0.0
2018-Jun-15 03:29N 47°35' W 122°21'0 0.0
2018-Jun-15 02:59N 47°35' W 122°21'0 0.0
2018-Jun-15 02:29N 47°35' W 122°21'0 0.1
2018-Jun-15 01:59N 47°35' W 122°21'1 1.8
2018-Jun-15 01:29N 47°34' W 122°22'0 0.0
2018-Jun-15 00:59N 47°34' W 122°22'0 0.0
2018-Jun-15 00:29N 47°34' W 122°22'0 0.0
2018-Jun-14 23:59N 47°34' W 122°22'0 0.0
2018-Jun-14 23:29N 47°34' W 122°22'1 1.3
2018-Jun-14 23:00N 47°34' W 122°21'1 1.3
2018-Jun-14 22:28N 47°33' W 122°21'0 0.0
2018-Jun-14 21:55N 47°33' W 122°21'0 0.0
2018-Jun-14 21:28N 47°33' W 122°21'0 0.1
2018-Jun-14 21:00N 47°33' W 122°21'2 4.8
2018-Jun-14 20:30N 47°36' W 122°22'1 2.4
2018-Jun-14 20:00N 47°34' W 122°22'0 0.0
2018-Jun-14 19:29N 47°34' W 122°22'0 0.0
2018-Jun-14 18:56N 47°34' W 122°22'0 0.0
2018-Jun-14 18:29N 47°34' W 122°22'0 0.0
2018-Jun-14 17:59N 47°34' W 122°22'0 0.0
2018-Jun-14 17:29N 47°34' W 122°22'0 0.0
2018-Jun-14 16:59N 47°34' W 122°22'0 0.0
2018-Jun-14 16:29N 47°34' W 122°22'0 0.0
2018-Jun-14 15:59N 47°34' W 122°22'0 0.0
2018-Jun-14 15:29N 47°34' W 122°22'0 0.0
2018-Jun-14 14:59N 47°34' W 122°22'0 0.0
2018-Jun-14 14:29N 47°34' W 122°22'0 0.0
2018-Jun-14 02:55N 47°34' W 122°22'0 0.0
2018-Jun-14 02:28N 47°34' W 122°22'0 0.0
2018-Jun-14 01:58N 47°34' W 122°22'0 0.0
2018-Jun-14 01:28N 47°34' W 122°22'0 0.0
2018-Jun-14 00:58N 47°34' W 122°22'0 0.0
2018-Jun-14 00:28N 47°34' W 122°22'  

Dump ship's entire track history